• Join FlightAware (Why Join?)
  • Login
  • US Flag 
12:56PM EST


 

Airport Tracker/Info


-or-


 

Live Flight TrackerFlight Track Log ✈ N9228V ✈ 07-Jul-2013 ✈ KMIE - KAOH

Flight Track Log - Related Links

Times and Time Zones

All times are in EDT time to prevent confusion due to time zone crossing. See the N9228V flight status page for this flight to view local times or setup timezone preferences in your user account.

Time Position Orientation Groundspeed Altitude Reporting Facility
EDT Latitude Longitude Course Direction KTS MPH feet Rate Location/Type
08:27AM 40.1167 -85.2500 67° East 159 183 3,400  Level Indianapolis TRACON
08:28AM 40.1500 -85.2833 323° Northwest 124 143 2,900 -300 Descending Indianapolis TRACON
08:29AM 40.1667 -85.3000 323° Northwest 106 122 2,900 -300 Level Indianapolis TRACON
08:30AM 40.1833 -85.3167 323° Northwest 92 106 2,400 -300 Descending Indianapolis TRACON
08:31AM 40.2000 -85.3333 323° Northwest 89 102 2,300 -60 Descending Indianapolis TRACON
08:33AM 40.3447 -85.0821 67° East  Level FlightAware Approximate
08:33AM 40.2000 -85.3333 270° West 89 102 2,300  Level Indianapolis TRACON
08:36AM 40.3000 -85.4500 318° Northwest 96 110 3,100 360 Climbing Indianapolis TRACON
08:37AM 40.3167 -85.4500 360° North 101 116 3,800 480 Climbing Indianapolis TRACON
08:38AM 40.3333 -85.4667 323° Northwest 100 115 4,100 60 Climbing Indianapolis TRACON
08:39AM 40.3667 -85.4500 21° North 136 157 4,000  Descending Indianapolis TRACON
08:40AM 40.4000 -85.4333 21° North 134 154 4,100 -120 Climbing Indianapolis TRACON
08:41AM 40.4167 -85.3833 66° East 150 173 3,800 -480 Descending Indianapolis TRACON
08:42AM 40.3833 -85.3500 143° Southeast 147 169 3,200 -420 Descending Indianapolis TRACON
08:43AM 40.3667 -85.3333 143° Southeast 128 147 3,000 -180 Descending Indianapolis TRACON
08:44AM 40.3333 -85.3333 180° South 92 106 2,900 -60 Descending Indianapolis TRACON
08:46AM 40.3333 -85.3333 323° Northwest 92 106 2,900  Level Indianapolis TRACON
08:48AM 40.3333 -85.3333 323° Northwest 92 106 2,900  Level Indianapolis TRACON
08:50AM 40.3174 -85.2696 108° East  Level FlightAware Approximate
08:52AM 40.1833 -85.4333 67° East 110 127 3,200  Level Indianapolis TRACON
08:52AM 40.1500 -85.4333 180° South 119 137 3,700 720 Climbing Indianapolis TRACON
08:53AM 40.1667 -85.4000 57° Northeast 131 151 4,400 660 Climbing Indianapolis TRACON
08:54AM 40.1833 -85.3500 66° East 125 144 5,100 660 Climbing Indianapolis TRACON
08:55AM 40.1992 -85.3181 57° Northeast 125 144 5,800 600 Climbing Indianapolis Center
08:56AM 40.2147 -85.2764 64° Northeast 128 147 6,400 540 Climbing Indianapolis Center
08:57AM 40.4174 -84.9564 67° East  Level Estimated
08:57AM 40.2314 -85.2375 61° Northeast 124 143 7,000  Level Indianapolis Center
08:58AM 40.2419 -85.2081 65° Northeast 134 154 7,100  Climbing Indianapolis Center
08:58AM 40.2531 -85.1828 60° Northeast 148 170 7,000 60 Descending Indianapolis Center
08:59AM 40.2717 -85.1311 65° Northeast 155 178 7,200 60 Climbing Indianapolis Center
09:01AM 40.2947 -85.0858 56° Northeast 150 173 7,200  Level Indianapolis Center
09:01AM 40.3100 -85.0342 69° East 157 181 7,200  Level Indianapolis Center
09:03AM 40.3311 -84.9839 61° Northeast 157 181 7,200  Level Indianapolis Center
09:04AM 40.3508 -84.9347 62° Northeast 154 177 7,200 -60 Level Indianapolis Center
09:05AM 40.3714 -84.8833 62° Northeast 155 178 7,100  Descending Indianapolis Center
09:06AM 40.3906 -84.8311 64° Northeast 156 180 7,200  Climbing Indianapolis Center
09:07AM 40.4103 -84.7825 62° Northeast 152 175 7,200 -60 Level Indianapolis Center
09:08AM 40.4308 -84.7308 62° Northeast 155 178 7,100 -120 Descending Indianapolis Center